Time;durP1;ratioP1;P1;durP2;ratioP2;P2;SDS_P1;SDS_P2;PMS_P1;PMS_P2;Temp;Humidity;BMP_temperature;BMP_pressure;BME280_temperature;BME280_humidity;BME280_pressure;Samples;Min_cycle;Max_cycle;Signal;HPM_P1;HPM_P2
2020/12/10 00:01:09;;;;;;;21.33;14.20;;;6.70;70.60;;;;;;5030160;28;20899;-81
2020/12/10 00:03:36;;;;;;;21.57;16.20;;;6.70;70.60;;;;;;5031782;28;20449;-80
2020/12/10 00:06:03;;;;;;;23.97;18.13;;;6.70;70.50;;;;;;5031609;28;20460;-80
2020/12/10 00:08:30;;;;;;;21.87;14.87;;;6.70;70.10;;;;;;5032131;28;20453;-80
2020/12/10 00:10:57;;;;;;;21.77;15.70;;;6.80;70.20;;;;;;5031895;28;20855;-81
2020/12/10 00:13:24;;;;;;;21.10;13.50;;;6.80;70.10;;;;;;5032088;28;20447;-81
2020/12/10 00:15:50;;;;;;;19.30;14.37;;;6.80;70.00;;;;;;5029611;28;20453;-80
2020/12/10 00:18:17;;;;;;;18.73;15.47;;;6.80;69.80;;;;;;5023747;28;20455;-81
2020/12/10 00:20:43;;;;;;;17.50;14.83;;;6.80;69.80;;;;;;5013153;28;20450;-81
2020/12/10 00:23:11;;;;;;;19.87;14.17;;;6.80;69.90;;;;;;5015047;28;20464;-81
2020/12/10 00:25:37;;;;;;;23.50;15.03;;;6.80;69.90;;;;;;5031426;28;20471;-80
2020/12/10 00:28:05;;;;;;;20.83;14.63;;;6.80;69.90;;;;;;5030317;28;20520;-81
2020/12/10 00:30:32;;;;;;;17.67;13.33;;;6.80;69.60;;;;;;5033359;28;20457;-81
2020/12/10 00:32:58;;;;;;;23.10;16.13;;;6.80;69.60;;;;;;5035596;28;20462;-81
2020/12/10 00:35:25;;;;;;;20.13;14.43;;;6.80;69.40;;;;;;5035551;28;20901;-81
2020/12/10 00:37:52;;;;;;;18.20;14.37;;;6.80;69.40;;;;;;5021304;28;20450;-81
2020/12/10 00:40:20;;;;;;;23.20;14.70;;;6.80;69.30;;;;;;5015850;28;20446;-81
2020/12/10 00:42:46;;;;;;;20.37;16.13;;;6.70;69.20;;;;;;5031614;28;20491;-81
2020/12/10 00:45:13;;;;;;;18.60;14.60;;;6.70;69.60;;;;;;5035344;28;20497;-80
2020/12/10 00:47:39;;;;;;;23.53;15.40;;;6.70;69.50;;;;;;5031278;28;20459;-80
2020/12/10 00:50:08;;;;;;;18.40;15.00;;;6.70;69.50;;;;;;5024590;28;20462;-80
2020/12/10 00:52:35;;;;;;;19.30;14.70;;;6.70;69.40;;;;;;5034418;28;20577;-82
2020/12/10 00:55:02;;;;;;;18.73;14.53;;;6.70;69.30;;;;;;5033485;28;20501;-81
2020/12/10 00:57:29;;;;;;;20.93;14.63;;;6.70;69.10;;;;;;5034867;28;20453;-80
2020/12/10 00:59:56;;;;;;;19.13;14.90;;;6.70;69.30;;;;;;5034101;28;20454;-81
2020/12/10 01:02:22;;;;;;;21.73;14.80;;;6.70;69.20;;;;;;5034531;28;20447;-82
2020/12/10 01:04:49;;;;;;;23.13;15.17;;;6.70;69.10;;;;;;5015430;28;20457;-81
2020/12/10 01:07:16;;;;;;;23.77;15.53;;;6.70;69.10;;;;;;5016621;28;20458;-82
2020/12/10 01:09:42;;;;;;;17.83;14.07;;;6.70;69.00;;;;;;5017421;28;20975;-80
2020/12/10 01:12:09;;;;;;;18.10;13.70;;;6.70;68.90;;;;;;5022047;28;20841;-81
2020/12/10 01:14:36;;;;;;;18.73;14.53;;;6.70;69.00;;;;;;5030791;28;20492;-81
2020/12/10 01:17:03;;;;;;;19.20;14.67;;;6.70;69.00;;;;;;5021348;28;20522;-81
2020/12/10 01:19:30;;;;;;;20.20;15.13;;;6.60;68.90;;;;;;5032130;28;20462;-82
2020/12/10 01:21:57;;;;;;;22.13;14.20;;;6.60;69.10;;;;;;5034321;28;20457;-80
2020/12/10 01:24:23;;;;;;;18.30;14.10;;;6.60;69.20;;;;;;5034646;28;20463;-80
2020/12/10 01:26:50;;;;;;;21.40;15.40;;;6.60;69.40;;;;;;5034683;28;20450;-81
2020/12/10 01:29:16;;;;;;;21.37;15.40;;;6.60;69.30;;;;;;5015965;28;20818;-80
2020/12/10 01:31:47;;;;;;;19.80;13.83;;;6.60;69.00;;;;;;5024092;28;21010;-80
2020/12/10 01:34:13;;;;;;;18.20;15.07;;;6.60;69.00;;;;;;5034316;28;20496;-80
2020/12/10 01:36:40;;;;;;;21.33;14.00;;;6.70;69.00;;;;;;5034526;28;20457;-81
2020/12/10 01:39:07;;;;;;;20.20;14.60;;;6.70;68.80;;;;;;5034239;28;20453;-81
2020/12/10 01:41:34;;;;;;;17.40;14.23;;;6.70;68.80;;;;;;5018531;28;20466;-80
2020/12/10 01:44:03;;;;;;;15.90;13.37;;;6.70;68.60;;;;;;5032971;28;20457;-80
2020/12/10 01:46:29;;;;;;;17.90;13.80;;;6.70;68.70;;;;;;5032165;28;20534;-79
2020/12/10 01:48:57;;;;;;;15.40;13.57;;;6.70;68.50;;;;;;5022851;28;20444;-80
2020/12/10 01:51:24;;;;;;;16.80;13.43;;;6.70;68.40;;;;;;5034006;28;20481;-79
2020/12/10 01:53:50;;;;;;;16.97;12.73;;;6.70;68.00;;;;;;5033213;28;20477;-78
2020/12/10 01:56:17;;;;;;;16.03;13.13;;;6.70;68.00;;;;;;5033542;28;20454;-77
2020/12/10 01:58:44;;;;;;;20.90;14.00;;;6.80;67.90;;;;;;5033637;28;20460;-79
2020/12/10 02:01:10;;;;;;;18.40;14.57;;;6.80;67.80;;;;;;5032399;28;20486;-79
2020/12/10 02:03:37;;;;;;;18.97;13.93;;;6.80;68.30;;;;;;5033219;28;20453;-78
2020/12/10 02:06:04;;;;;;;18.70;14.10;;;6.70;67.40;;;;;;5032270;28;20503;-79
2020/12/10 02:08:31;;;;;;;17.20;14.60;;;6.80;67.60;;;;;;5033524;28;20811;-81
2020/12/10 02:10:57;;;;;;;18.33;13.60;;;6.70;67.50;;;;;;5033286;28;21028;-81
2020/12/10 02:13:24;;;;;;;19.60;13.37;;;6.70;67.50;;;;;;5031865;28;20450;-80
2020/12/10 02:15:51;;;;;;;18.83;13.10;;;6.70;67.40;;;;;;5033194;28;20993;-80
2020/12/10 02:18:18;;;;;;;21.63;12.93;;;6.60;67.10;;;;;;5031961;28;20467;-80
2020/12/10 02:20:45;;;;;;;17.07;13.10;;;6.70;67.20;;;;;;5027124;28;20450;-80
2020/12/10 02:23:12;;;;;;;16.80;13.60;;;6.70;67.10;;;;;;5032791;28;20467;-80
2020/12/10 02:25:39;;;;;;;19.87;13.50;;;6.70;67.20;;;;;;5033056;28;20461;-80
2020/12/10 02:28:11;;;;;;;19.90;13.17;;;6.70;67.20;;;;;;5033222;28;20460;-80
2020/12/10 02:30:38;;;;;;;17.60;11.97;;;6.70;67.10;;;;;;5033480;28;20964;-80
2020/12/10 02:33:06;;;;;;;22.40;13.63;;;6.60;67.20;;;;;;5037630;28;20456;-80
2020/12/10 02:35:33;;;;;;;18.40;13.60;;;6.60;67.50;;;;;;5032736;28;20492;-80
2020/12/10 02:38:03;;;;;;;16.17;12.47;;;6.60;67.70;;;;;;5032714;28;20460;-81
2020/12/10 02:40:34;;;;;;;17.13;12.40;;;6.60;67.60;;;;;;5031683;28;20453;-80
2020/12/10 02:43:01;;;;;;;15.60;13.30;;;6.60;67.70;;;;;;5034552;28;20513;-81
2020/12/10 02:45:28;;;;;;;15.27;12.00;;;6.60;67.80;;;;;;5025852;28;20457;-80
2020/12/10 02:47:55;;;;;;;19.80;13.90;;;6.50;68.00;;;;;;5019039;28;20468;-80
2020/12/10 02:50:22;;;;;;;21.53;13.40;;;6.50;68.20;;;;;;5032959;28;20820;-79
2020/12/10 02:52:49;;;;;;;19.03;12.80;;;6.50;68.20;;;;;;5032483;28;20473;-79
2020/12/10 02:55:16;;;;;;;17.53;14.07;;;6.60;68.20;;;;;;5032782;28;20519;-79
2020/12/10 02:57:44;;;;;;;16.57;12.57;;;6.60;68.10;;;;;;5031423;28;20475;-77
2020/12/10 03:00:11;;;;;;;17.87;14.17;;;6.60;68.20;;;;;;5032668;28;20452;-79
2020/12/10 03:02:38;;;;;;;19.37;13.97;;;6.50;68.10;;;;;;5033001;28;20442;-79
2020/12/10 03:05:06;;;;;;;23.90;15.10;;;6.60;68.10;;;;;;5021477;28;20457;-78
2020/12/10 03:07:32;;;;;;;16.73;13.77;;;6.50;67.80;;;;;;5019447;28;20450;-77
2020/12/10 03:09:59;;;;;;;18.17;13.00;;;6.60;67.70;;;;;;5032566;28;20449;-78
2020/12/10 03:12:25;;;;;;;18.20;13.97;;;6.60;67.60;;;;;;5032421;28;20476;-78
2020/12/10 03:14:53;;;;;;;18.00;13.33;;;6.60;67.50;;;;;;5032516;28;20495;-78
2020/12/10 03:17:20;;;;;;;18.97;13.90;;;6.60;67.40;;;;;;5027345;28;20456;-78
2020/12/10 03:19:46;;;;;;;18.10;14.00;;;6.60;67.30;;;;;;5013057;28;20948;-80
2020/12/10 03:22:15;;;;;;;21.57;13.30;;;6.60;67.30;;;;;;5013717;28;20457;-80
2020/12/10 03:24:42;;;;;;;19.13;14.50;;;6.60;67.30;;;;;;5017889;28;20475;-80
2020/12/10 03:27:09;;;;;;;17.83;13.63;;;6.60;67.10;;;;;;5031912;28;20460;-80
2020/12/10 03:29:35;;;;;;;20.90;15.30;;;6.60;67.10;;;;;;5030886;28;20454;-79
2020/12/10 03:32:04;;;;;;;20.80;13.93;;;6.60;67.00;;;;;;5022342;28;21077;-79
2020/12/10 03:34:31;;;;;;;23.67;15.23;;;6.60;66.90;;;;;;5021050;28;20997;-79
2020/12/10 03:36:59;;;;;;;20.27;14.80;;;6.60;67.00;;;;;;5032153;28;20801;-79
2020/12/10 03:39:28;;;;;;;20.80;15.53;;;6.60;67.20;;;;;;5032387;28;20457;-79
2020/12/10 03:41:56;;;;;;;23.63;15.00;;;6.60;66.70;;;;;;5032375;28;20497;-79
2020/12/10 03:44:23;;;;;;;20.47;15.30;;;6.60;66.80;;;;;;5013400;28;20464;-78
2020/12/10 03:46:49;;;;;;;23.70;14.87;;;6.60;66.90;;;;;;5021999;28;20817;-79
2020/12/10 03:49:17;;;;;;;23.23;16.63;;;6.60;66.90;;;;;;5028195;28;20456;-79
2020/12/10 03:51:44;;;;;;;22.67;16.20;;;6.60;66.90;;;;;;5031361;28;20466;-79
2020/12/10 03:54:10;;;;;;;17.97;14.70;;;6.60;66.70;;;;;;5032409;28;20496;-79
2020/12/10 03:56:37;;;;;;;23.60;16.03;;;6.60;66.60;;;;;;5031879;28;20464;-79
2020/12/10 03:59:04;;;;;;;22.60;14.93;;;6.60;66.40;;;;;;5030300;28;20457;-78
2020/12/10 04:01:31;;;;;;;21.70;15.27;;;6.60;66.40;;;;;;5032163;28;20471;-78
2020/12/10 04:03:58;;;;;;;23.20;14.60;;;6.60;66.40;;;;;;5031943;28;20455;-78
2020/12/10 04:06:26;;;;;;;26.57;14.93;;;6.60;66.60;;;;;;5035014;28;20956;-78
2020/12/10 04:08:53;;;;;;;19.90;14.20;;;6.60;66.80;;;;;;5036184;28;20458;-78
2020/12/10 04:11:20;;;;;;;23.83;16.57;;;6.60;67.00;;;;;;5035668;28;20445;-78
2020/12/10 04:13:47;;;;;;;21.73;14.97;;;6.60;67.10;;;;;;5035903;28;20446;-79
2020/12/10 04:16:13;;;;;;;22.50;16.13;;;6.60;67.10;;;;;;5031564;28;20458;-80
2020/12/10 04:18:41;;;;;;;24.63;17.27;;;6.60;67.00;;;;;;5016088;28;20458;-78
2020/12/10 04:21:09;;;;;;;22.87;17.03;;;6.60;66.90;;;;;;5017949;28;20465;-78
2020/12/10 04:23:36;;;;;;;22.40;17.33;;;6.60;66.90;;;;;;5035552;28;20446;-77
2020/12/10 04:26:03;;;;;;;21.87;17.30;;;6.60;66.90;;;;;;5034075;28;20868;-78
2020/12/10 04:28:30;;;;;;;17.67;14.53;;;6.60;67.10;;;;;;5017518;28;20457;-79
2020/12/10 04:30:57;;;;;;;25.63;17.10;;;6.60;67.00;;;;;;5016212;28;20457;-79
2020/12/10 04:33:23;;;;;;;24.37;17.70;;;6.50;67.40;;;;;;5035703;28;20460;-78
2020/12/10 04:35:50;;;;;;;27.47;17.30;;;6.50;67.50;;;;;;5033848;28;20509;-78
2020/12/10 04:38:17;;;;;;;20.43;15.27;;;6.50;67.70;;;;;;5035469;28;20466;-79
2020/12/10 04:40:45;;;;;;;24.00;16.53;;;6.40;68.00;;;;;;5035251;28;20463;-79
2020/12/10 04:43:14;;;;;;;25.23;17.67;;;6.50;68.20;;;;;;5016160;28;20952;-79
2020/12/10 04:45:40;;;;;;;20.97;17.70;;;6.50;68.10;;;;;;5026816;28;20941;-78
2020/12/10 04:48:07;;;;;;;25.03;17.10;;;6.50;68.10;;;;;;5028960;28;20450;-79
2020/12/10 04:50:36;;;;;;;26.37;18.07;;;6.40;68.00;;;;;;5024856;28;20460;-79
2020/12/10 04:53:03;;;;;;;22.53;18.23;;;6.40;68.30;;;;;;5033277;28;20468;-79
2020/12/10 04:55:31;;;;;;;24.20;17.57;;;6.40;68.70;;;;;;5034857;28;20977;-79
2020/12/10 04:58:00;;;;;;;26.13;18.07;;;6.40;68.90;;;;;;5034536;28;20457;-80
2020/12/10 05:00:27;;;;;;;27.20;17.23;;;6.40;68.90;;;;;;5034613;28;20449;-78
2020/12/10 05:02:54;;;;;;;26.90;17.30;;;6.40;68.90;;;;;;5034288;28;20457;-79
2020/12/10 05:05:22;;;;;;;21.70;16.73;;;6.30;68.70;;;;;;5032936;28;20961;-79
2020/12/10 05:07:48;;;;;;;24.00;17.17;;;6.30;68.90;;;;;;5025585;28;20468;-80
2020/12/10 05:10:18;;;;;;;27.20;18.00;;;6.30;69.10;;;;;;5033213;28;20834;-82
2020/12/10 05:12:49;;;;;;;23.07;17.70;;;6.30;69.30;;;;;;5024938;28;20448;-81
2020/12/10 05:15:30;;;;;;;24.57;15.50;;;6.30;69.30;;;;;;5034050;28;21003;-82
2020/12/10 05:18:04;;;;;;;25.53;17.67;;;6.30;69.50;;;;;;5026611;28;20719;-82
2020/12/10 05:20:48;;;;;;;24.40;17.57;;;6.40;69.70;;;;;;5034915;28;20820;-83
2020/12/10 05:23:33;;;;;;;22.30;16.30;;;6.40;69.60;;;;;;5034479;28;20465;-86
2020/12/10 05:26:02;;;;;;;23.37;17.17;;;6.40;69.20;;;;;;5034034;28;20810;-80
2020/12/10 05:28:40;;;;;;;21.83;16.23;;;6.30;69.10;;;;;;5033912;28;20497;-80
2020/12/10 05:31:10;;;;;;;25.07;16.13;;;6.20;69.00;;;;;;5033731;28;20464;-79
2020/12/10 05:33:37;;;;;;;25.73;16.40;;;6.20;69.40;;;;;;5033108;28;20455;-80
2020/12/10 05:36:11;;;;;;;25.37;17.60;;;6.20;69.60;;;;;;5033944;28;20977;-80
2020/12/10 05:38:53;;;;;;;22.40;16.97;;;6.20;69.40;;;;;;5034534;28;20454;-79
2020/12/10 05:41:21;;;;;;;25.20;16.10;;;6.20;69.20;;;;;;5033600;28;20459;-80
2020/12/10 05:43:48;;;;;;;27.23;18.90;;;6.20;69.20;;;;;;5034433;28;20456;-79
2020/12/10 05:46:19;;;;;;;29.40;17.93;;;6.20;69.30;;;;;;5031874;28;20453;-80
2020/12/10 05:48:46;;;;;;;25.27;16.23;;;6.10;69.30;;;;;;5032639;28;20468;-78
2020/12/10 05:51:17;;;;;;;26.97;16.17;;;6.10;69.60;;;;;;5033377;28;20961;-79
2020/12/10 05:53:45;;;;;;;24.40;16.03;;;6.20;69.80;;;;;;5034052;28;20568;-78
2020/12/10 05:56:14;;;;;;;26.57;18.00;;;6.20;69.60;;;;;;5033096;28;20865;-80
2020/12/10 05:58:48;;;;;;;29.20;17.93;;;6.30;69.50;;;;;;5032777;28;20832;-78
2020/12/10 06:01:26;;;;;;;22.03;17.60;;;6.30;69.40;;;;;;5032742;28;20533;-79
2020/12/10 06:03:54;;;;;;;27.97;18.47;;;6.40;69.30;;;;;;5027046;28;21037;-79
2020/12/10 06:06:21;;;;;;;25.10;17.50;;;6.40;69.10;;;;;;5016767;28;20846;-79
2020/12/10 06:08:50;;;;;;;27.23;19.30;;;6.40;68.90;;;;;;5033746;28;20449;-78
2020/12/10 06:11:20;;;;;;;29.27;18.00;;;6.40;68.60;;;;;;5026096;28;20998;-79
2020/12/10 06:13:47;;;;;;;27.93;19.20;;;6.40;68.10;;;;;;5030600;28;20459;-80
2020/12/10 06:16:16;;;;;;;29.50;19.70;;;6.40;68.30;;;;;;5032016;28;20484;-78
2020/12/10 06:19:01;;;;;;;27.20;18.30;;;6.40;68.60;;;;;;5032603;28;20485;-80
2020/12/10 06:21:36;;;;;;;23.47;17.40;;;6.40;68.80;;;;;;5033241;28;20457;-78
2020/12/10 06:24:35;;;;;;;30.27;19.97;;;6.30;68.70;;;;;;5032191;28;20522;-78
2020/12/10 06:27:25;;;;;;;25.73;16.43;;;6.40;68.80;;;;;;5027407;28;20458;-78
2020/12/10 06:30:10;;;;;;;28.17;18.37;;;6.40;68.40;;;;;;5020641;28;20468;-80
2020/12/10 06:32:47;;;;;;;26.90;17.97;;;6.20;68.00;;;;;;5031295;28;20866;-79
2020/12/10 06:35:33;;;;;;;26.67;16.57;;;6.20;68.30;;;;;;5028700;28;20498;-80
2020/12/10 06:38:00;;;;;;;26.17;17.57;;;6.10;68.60;;;;;;5011794;28;20455;-80
2020/12/10 06:40:36;;;;;;;22.70;16.70;;;6.10;68.80;;;;;;5024098;28;20457;-80
2020/12/10 06:43:05;;;;;;;23.77;16.40;;;6.10;68.90;;;;;;5032989;28;20443;-80
2020/12/10 06:45:34;;;;;;;22.60;17.80;;;6.20;68.60;;;;;;5033129;28;20454;-80
2020/12/10 06:48:02;;;;;;;28.87;17.03;;;6.20;68.40;;;;;;5027658;28;20454;-80
2020/12/10 06:50:32;;;;;;;24.77;17.07;;;6.30;68.30;;;;;;5023438;28;20457;-81
2020/12/10 06:53:18;;;;;;;25.60;17.37;;;6.30;68.20;;;;;;5051062;28;20465;-80
2020/12/10 06:56:01;;;;;;;26.23;18.47;;;6.30;68.40;;;;;;5050217;28;20491;-80
2020/12/10 06:58:48;;;;;;;21.77;16.37;;;6.30;68.50;;;;;;5052838;28;20460;-80
2020/12/10 07:01:23;;;;;;;22.60;17.90;;;6.30;68.50;;;;;;5038180;28;20587;-81
2020/12/10 07:03:52;;;;;;;21.77;14.93;;;6.30;68.40;;;;;;5046432;28;20885;-81
2020/12/10 07:06:21;;;;;;;22.67;15.77;;;6.30;68.40;;;;;;5030990;28;20818;-80
2020/12/10 07:09:02;;;;;;;22.20;16.57;;;6.30;68.50;;;;;;5039412;28;20867;-80
2020/12/10 07:11:33;;;;;;;19.40;14.83;;;6.40;68.30;;;;;;5052553;28;20478;-80
2020/12/10 07:14:00;;;;;;;21.57;15.03;;;6.40;68.00;;;;;;5051745;28;20456;-80
2020/12/10 07:16:31;;;;;;;18.87;14.47;;;6.40;68.00;;;;;;5052339;28;20494;-81
2020/12/10 07:18:58;;;;;;;25.57;16.73;;;6.40;68.10;;;;;;5051824;28;20855;-81
2020/12/10 07:21:26;;;;;;;29.10;18.73;;;6.40;67.90;;;;;;5052511;28;20458;-80
2020/12/10 07:23:52;;;;;;;22.27;16.43;;;6.40;67.90;;;;;;5045064;28;20456;-81
2020/12/10 07:26:19;;;;;;;27.33;17.07;;;6.40;68.00;;;;;;5032686;28;20816;-80
2020/12/10 07:28:47;;;;;;;29.80;17.00;;;6.40;68.00;;;;;;5038452;28;20500;-80
2020/12/10 07:31:17;;;;;;;24.73;16.47;;;6.40;68.00;;;;;;5051010;28;20445;-80
2020/12/10 07:33:45;;;;;;;25.00;16.30;;;6.40;68.20;;;;;;5050822;28;20890;-80
2020/12/10 07:36:12;;;;;;;26.10;18.10;;;6.40;68.20;;;;;;5052370;28;21034;-80
2020/12/10 07:38:45;;;;;;;24.40;16.30;;;6.30;68.10;;;;;;5047981;28;20471;-80
2020/12/10 07:41:11;;;;;;;22.27;15.17;;;6.30;67.90;;;;;;5051459;28;20484;-80
2020/12/10 07:43:46;;;;;;;19.17;14.50;;;6.40;67.90;;;;;;5045089;28;20460;-80
2020/12/10 07:46:13;;;;;;;25.40;16.57;;;6.40;67.80;;;;;;5032518;28;20459;-80
2020/12/10 07:48:40;;;;;;;21.37;16.80;;;6.40;68.00;;;;;;5035111;28;20450;-80
2020/12/10 07:51:07;;;;;;;23.87;14.90;;;6.40;68.10;;;;;;5052123;28;20484;-80
2020/12/10 07:53:34;;;;;;;29.00;16.90;;;6.40;68.00;;;;;;5046201;28;20452;-81
2020/12/10 07:56:03;;;;;;;21.50;15.00;;;6.40;68.00;;;;;;5033214;28;20496;-81
2020/12/10 07:58:39;;;;;;;21.83;15.33;;;6.40;68.30;;;;;;5030841;28;20441;-80
2020/12/10 08:01:06;;;;;;;21.80;14.50;;;6.40;68.20;;;;;;5033022;28;20816;-81
2020/12/10 08:03:47;;;;;;;24.57;15.33;;;6.40;68.00;;;;;;5034557;28;20491;-81
2020/12/10 08:06:15;;;;;;;18.20;13.00;;;6.50;68.10;;;;;;5052257;28;20460;-80
2020/12/10 08:08:45;;;;;;;17.00;12.40;;;6.50;67.90;;;;;;5050452;28;20843;-80
2020/12/10 08:11:16;;;;;;;16.43;13.10;;;6.50;67.90;;;;;;5052094;28;20440;-80
2020/12/10 08:14:00;;;;;;;19.50;14.70;;;6.60;66.80;;;;;;5050239;28;20456;-80
2020/12/10 08:16:38;;;;;;;18.07;12.93;;;6.60;66.20;;;;;;5051784;28;20519;-81
2020/12/10 08:19:15;;;;;;;14.30;12.10;;;6.60;66.00;;;;;;5049650;28;20460;-80
2020/12/10 08:21:42;;;;;;;20.73;14.00;;;6.60;65.70;;;;;;5050176;28;20459;-81
2020/12/10 08:24:09;;;;;;;27.10;15.37;;;6.70;65.40;;;;;;5030229;28;20969;-81
2020/12/10 08:26:36;;;;;;;20.27;14.07;;;6.70;65.40;;;;;;5031887;28;20489;-80
2020/12/10 08:29:03;;;;;;;16.60;12.50;;;6.70;65.40;;;;;;5034622;28;20455;-81
2020/12/10 08:31:32;;;;;;;23.37;15.40;;;6.70;65.60;;;;;;5051820;28;20456;-81
2020/12/10 08:33:59;;;;;;;22.50;15.60;;;6.80;65.90;;;;;;5049370;28;22735;-81
2020/12/10 08:36:32;;;;;;;17.03;13.67;;;6.80;65.40;;;;;;5033950;28;20973;-80
2020/12/10 08:39:01;;;;;;;19.40;14.57;;;6.80;65.00;;;;;;5049828;28;20443;-81
2020/12/10 08:41:31;;;;;;;20.80;15.23;;;6.80;64.80;;;;;;5032002;28;20548;-81
2020/12/10 08:44:00;;;;;;;20.10;14.20;;;6.80;64.80;;;;;;5032379;28;20457;-81
2020/12/10 08:46:28;;;;;;;18.17;12.83;;;6.80;65.00;;;;;;5031952;28;20456;-78
2020/12/10 08:48:56;;;;;;;21.10;14.37;;;6.90;65.00;;;;;;5031554;28;20949;-80
2020/12/10 08:51:36;;;;;;;20.60;14.57;;;6.90;64.70;;;;;;5011902;28;20480;-80
2020/12/10 08:54:04;;;;;;;13.17;10.27;;;6.90;64.60;;;;;;5016489;28;20553;-81
2020/12/10 08:56:36;;;;;;;12.17;9.33;;;6.90;64.30;;;;;;5034798;28;20491;-80
2020/12/10 08:59:04;;;;;;;13.50;10.17;;;6.90;63.30;;;;;;5035245;28;20459;-80
2020/12/10 09:01:30;;;;;;;12.97;9.77;;;6.90;63.60;;;;;;5034749;28;20774;-81
2020/12/10 09:03:57;;;;;;;15.97;10.20;;;6.90;63.70;;;;;;5034286;28;20454;-80
2020/12/10 09:06:32;;;;;;;12.40;9.17;;;6.80;63.20;;;;;;5034731;28;20450;-80
2020/12/10 09:08:58;;;;;;;19.57;11.20;;;6.80;63.30;;;;;;5035252;28;20475;-81
2020/12/10 09:11:25;;;;;;;11.13;9.53;;;6.80;63.60;;;;;;5034597;28;20461;-80
2020/12/10 09:13:52;;;;;;;11.93;10.20;;;6.80;63.20;;;;;;5035161;28;20452;-80
2020/12/10 09:16:19;;;;;;;13.30;9.93;;;6.80;63.10;;;;;;5034423;28;20960;-79
2020/12/10 09:18:46;;;;;;;14.77;12.20;;;6.80;63.00;;;;;;5033308;28;20549;-80
2020/12/10 09:21:13;;;;;;;15.90;12.27;;;6.80;62.90;;;;;;5034525;28;20463;-79
2020/12/10 09:23:44;;;;;;;18.63;13.30;;;6.90;62.90;;;;;;5034473;28;20953;-79
2020/12/10 09:26:12;;;;;;;18.47;12.53;;;6.90;63.10;;;;;;5033265;28;20457;-81
2020/12/10 09:28:38;;;;;;;11.20;8.80;;;6.90;63.00;;;;;;5036003;28;20529;-78
2020/12/10 09:31:05;;;;;;;10.33;8.83;;;6.90;62.60;;;;;;5038451;28;20456;-80
2020/12/10 09:33:33;;;;;;;10.70;8.80;;;6.90;62.00;;;;;;5034242;28;20438;-81
2020/12/10 09:36:00;;;;;;;8.50;6.93;;;6.80;62.40;;;;;;5033682;28;20500;-79
2020/12/10 09:38:27;;;;;;;9.77;7.23;;;6.90;62.80;;;;;;5034411;28;20443;-79
2020/12/10 09:40:55;;;;;;;9.40;6.07;;;7.00;62.90;;;;;;5034485;28;20473;-81
2020/12/10 09:43:21;;;;;;;8.73;7.90;;;7.00;62.40;;;;;;5032417;28;21075;-79
2020/12/10 09:45:53;;;;;;;10.80;8.40;;;7.00;62.00;;;;;;5034542;28;20450;-79
2020/12/10 09:48:20;;;;;;;12.30;8.80;;;7.00;61.90;;;;;;5026375;28;20461;-79
2020/12/10 09:50:47;;;;;;;12.37;8.53;;;7.10;62.20;;;;;;5017123;28;20595;-78
2020/12/10 09:53:17;;;;;;;13.77;10.63;;;7.20;62.20;;;;;;5034092;28;20464;-78
2020/12/10 09:58:37;;;;;;;9.07;7.83;;;7.30;61.50;;;;;;5035136;28;20956;-81
2020/12/10 10:01:03;;;;;;;12.73;9.87;;;7.40;61.20;;;;;;5034935;28;20466;-79
2020/12/10 10:03:30;;;;;;;9.53;7.87;;;7.50;61.00;;;;;;5033341;28;20441;-81
2020/12/10 10:05:57;;;;;;;12.53;8.30;;;7.50;60.30;;;;;;5040662;28;20472;-80
2020/12/10 10:08:27;;;;;;;8.50;7.67;;;7.50;59.90;;;;;;5053866;28;20449;-81
2020/12/10 10:10:54;;;;;;;21.60;9.47;;;7.60;60.10;;;;;;5045417;28;20455;-81
2020/12/10 10:13:21;;;;;;;11.33;9.20;;;7.60;60.00;;;;;;5033688;28;20472;-81
2020/12/10 10:15:47;;;;;;;10.40;8.90;;;7.60;59.70;;;;;;5034699;28;20482;-81
2020/12/10 10:18:16;;;;;;;10.93;8.80;;;7.60;59.50;;;;;;5033811;28;20466;-81
2020/12/10 10:20:43;;;;;;;11.27;9.30;;;7.50;59.80;;;;;;5042953;28;20816;-81
2020/12/10 10:23:10;;;;;;;12.07;9.10;;;7.60;60.10;;;;;;5053770;28;20817;-78
2020/12/10 10:25:37;;;;;;;11.20;9.07;;;7.60;60.20;;;;;;5040835;28;20460;-80
2020/12/10 10:28:04;;;;;;;11.40;9.50;;;7.60;60.10;;;;;;5033720;28;20455;-80
2020/12/10 10:30:31;;;;;;;9.13;8.10;;;7.60;60.10;;;;;;5033541;28;20806;-78
2020/12/10 10:32:57;;;;;;;10.73;8.73;;;7.70;60.10;;;;;;5033044;28;20961;-78
2020/12/10 10:35:24;;;;;;;11.43;9.03;;;7.70;60.00;;;;;;5033266;28;20569;-80
2020/12/10 10:37:51;;;;;;;12.77;9.90;;;7.70;59.90;;;;;;5031637;28;20482;-78
2020/12/10 10:40:19;;;;;;;11.40;8.80;;;7.80;59.80;;;;;;5033429;28;20810;-79
2020/12/10 10:42:45;;;;;;;11.80;8.83;;;7.70;59.70;;;;;;5033494;28;20804;-78
2020/12/10 10:45:12;;;;;;;14.80;9.27;;;7.80;59.70;;;;;;5033473;28;20779;-78
2020/12/10 10:47:39;;;;;;;11.30;9.20;;;7.70;59.60;;;;;;5032865;28;20464;-81
2020/12/10 10:50:06;;;;;;;15.83;11.00;;;7.70;59.60;;;;;;5032982;28;20955;-80
2020/12/10 10:52:32;;;;;;;17.33;9.40;;;7.70;59.80;;;;;;5033145;28;20471;-80
2020/12/10 10:54:59;;;;;;;9.97;8.93;;;7.80;59.50;;;;;;5032830;28;20836;-80
2020/12/10 10:57:27;;;;;;;12.77;10.87;;;7.80;59.50;;;;;;5032774;28;20526;-80
2020/12/10 10:59:53;;;;;;;10.67;9.57;;;7.80;59.60;;;;;;5033008;28;20474;-80
2020/12/10 11:02:20;;;;;;;14.40;11.17;;;7.80;59.60;;;;;;5031307;28;20822;-80
2020/12/10 11:04:46;;;;;;;15.03;11.20;;;7.80;59.60;;;;;;5032904;28;20819;-80
2020/12/10 11:07:13;;;;;;;15.87;11.63;;;7.80;59.80;;;;;;5032933;28;20453;-80
2020/12/10 11:09:39;;;;;;;16.80;12.50;;;7.80;59.90;;;;;;5032827;28;21081;-80
2020/12/10 11:12:07;;;;;;;12.37;11.07;;;7.90;60.00;;;;;;5033000;28;20797;-80
2020/12/10 11:14:34;;;;;;;13.50;11.20;;;7.90;59.90;;;;;;5032370;28;20806;-80
2020/12/10 11:17:01;;;;;;;14.20;12.03;;;7.90;59.80;;;;;;5032801;28;20512;-80
2020/12/10 11:19:28;;;;;;;15.50;11.93;;;7.90;59.70;;;;;;5032724;28;20804;-80
2020/12/10 11:21:55;;;;;;;15.93;12.10;;;7.90;59.70;;;;;;5032649;28;20446;-80
2020/12/10 11:24:21;;;;;;;17.67;12.67;;;7.90;59.70;;;;;;5032445;28;20451;-80
2020/12/10 11:26:52;;;;;;;16.97;11.47;;;7.90;60.00;;;;;;5032583;28;20455;-78
2020/12/10 11:29:18;;;;;;;14.60;11.23;;;7.90;60.40;;;;;;5030862;28;20478;-79
2020/12/10 11:31:46;;;;;;;19.40;12.87;;;7.90;60.40;;;;;;5032352;28;20823;-79
2020/12/10 11:34:13;;;;;;;14.33;11.47;;;7.90;60.40;;;;;;5032164;28;20463;-79
2020/12/10 11:36:39;;;;;;;17.57;11.87;;;7.90;60.10;;;;;;5032247;28;21010;-79
2020/12/10 11:39:06;;;;;;;17.10;12.13;;;7.90;60.30;;;;;;5032388;28;20858;-80
2020/12/10 11:41:32;;;;;;;14.97;10.87;;;7.90;60.40;;;;;;5032574;28;20467;-80
2020/12/10 11:43:59;;;;;;;14.00;11.83;;;7.90;60.30;;;;;;5032505;28;20455;-80
2020/12/10 11:46:25;;;;;;;15.93;11.30;;;7.90;60.50;;;;;;5032457;28;20454;-80
2020/12/10 11:48:53;;;;;;;17.07;11.63;;;7.80;60.80;;;;;;5019972;28;20448;-79
2020/12/10 11:51:19;;;;;;;16.50;11.57;;;7.80;61.10;;;;;;5019726;28;21070;-80
2020/12/10 11:53:48;;;;;;;16.27;12.23;;;7.80;61.10;;;;;;5032225;28;20457;-80
2020/12/10 11:56:15;;;;;;;19.40;12.70;;;7.80;60.40;;;;;;5030338;28;20518;-80
2020/12/10 11:58:41;;;;;;;17.80;12.10;;;7.80;60.40;;;;;;5032093;28;20821;-80
2020/12/10 12:01:08;;;;;;;15.73;11.73;;;7.80;60.60;;;;;;5031925;28;20856;-79
2020/12/10 12:03:35;;;;;;;17.27;12.87;;;7.80;60.50;;;;;;5031752;28;20470;-78
2020/12/10 12:06:04;;;;;;;15.30;12.87;;;7.80;60.20;;;;;;5032042;28;20825;-80
2020/12/10 12:08:30;;;;;;;18.10;13.93;;;7.80;60.20;;;;;;5014579;28;20962;-79
2020/12/10 12:10:59;;;;;;;18.43;13.07;;;7.70;60.00;;;;;;5032182;28;20448;-79
2020/12/10 12:13:25;;;;;;;15.37;12.43;;;7.80;60.20;;;;;;5031780;28;20937;-79
2020/12/10 12:15:52;;;;;;;14.90;11.80;;;7.70;60.40;;;;;;5031653;28;20832;-81
2020/12/10 12:18:19;;;;;;;12.30;10.20;;;7.70;60.50;;;;;;5031199;28;20448;-79
2020/12/10 12:20:46;;;;;;;16.10;11.80;;;7.60;60.20;;;;;;5031114;28;20442;-79
2020/12/10 12:23:14;;;;;;;20.83;13.40;;;7.50;60.60;;;;;;5031148;28;20794;-79
2020/12/10 12:25:41;;;;;;;17.40;11.67;;;7.50;61.10;;;;;;5031607;28;20455;-79
2020/12/10 12:28:07;;;;;;;22.80;13.50;;;7.50;61.30;;;;;;5035753;28;20827;-79
2020/12/10 12:30:34;;;;;;;21.40;14.00;;;7.50;61.10;;;;;;5035660;28;20454;-79
2020/12/10 12:33:02;;;;;;;15.40;11.97;;;7.50;61.00;;;;;;5035800;28;20447;-80
2020/12/10 12:35:30;;;;;;;13.33;10.90;;;7.40;60.90;;;;;;5035573;28;21079;-79
2020/12/10 12:37:57;;;;;;;39.43;15.10;;;7.40;61.10;;;;;;5035592;28;21387;-80
2020/12/10 12:40:27;;;;;;;15.40;11.67;;;7.40;61.40;;;;;;5035157;28;20550;-79
2020/12/10 12:42:56;;;;;;;19.90;12.63;;;7.40;61.40;;;;;;5035490;28;20446;-79
2020/12/10 12:45:23;;;;;;;29.33;13.37;;;7.40;61.50;;;;;;5033408;28;20452;-79
2020/12/10 12:47:50;;;;;;;20.93;13.53;;;7.50;61.50;;;;;;5032362;28;20529;-79